Time;durP1;ratioP1;P1;durP2;ratioP2;P2;SDS_P1;SDS_P2;PMS_P1;PMS_P2;Temp;Humidity;BMP_temperature;BMP_pressure;BME280_temperature;BME280_humidity;BME280_pressure;Samples;Min_cycle;Max_cycle;Signal;HPM_P1;HPM_P2
2021/12/10 00:01:47;;;;;;;4.93;3.37;;;2.00;99.90;;;;;;5118842;27;20276;-48
2021/12/10 00:04:35;;;;;;;3.50;3.07;;;2.00;99.90;;;;;;5111643;27;20233;-49
2021/12/10 00:07:23;;;;;;;8.03;3.70;;;2.00;99.90;;;;;;5123413;27;20191;-55
2021/12/10 00:10:14;;;;;;;7.93;3.67;;;2.00;99.90;;;;;;5120034;27;20199;-53
2021/12/10 00:12:59;;;;;;;6.17;3.40;;;2.00;99.90;;;;;;5119015;27;20222;-58
2021/12/10 00:15:44;;;;;;;5.13;3.93;;;2.00;99.90;;;;;;5125880;27;20215;-56
2021/12/10 00:18:34;;;;;;;3.90;3.47;;;2.10;99.90;;;;;;5123234;27;20211;-59
2021/12/10 00:21:19;;;;;;;8.43;4.50;;;2.00;99.90;;;;;;5152156;27;20187;-49
2021/12/10 00:24:04;;;;;;;5.03;4.20;;;2.10;99.90;;;;;;5125558;27;20206;-52
2021/12/10 00:26:50;;;;;;;4.43;3.30;;;2.00;99.90;;;;;;5152735;27;20192;-55
2021/12/10 00:29:40;;;;;;;3.07;2.67;;;2.10;99.90;;;;;;5123591;27;20260;-55
2021/12/10 00:32:33;;;;;;;4.77;4.20;;;2.00;99.90;;;;;;5124462;27;20219;-52
2021/12/10 00:35:23;;;;;;;5.30;4.03;;;2.00;99.90;;;;;;5121434;27;20303;-52
2021/12/10 00:38:09;;;;;;;5.03;4.10;;;1.90;99.90;;;;;;5124460;27;20199;-47
2021/12/10 00:40:54;;;;;;;4.53;3.67;;;1.90;99.90;;;;;;5123192;27;20191;-57
2021/12/10 00:43:39;;;;;;;6.57;3.97;;;1.90;99.90;;;;;;5150421;27;20212;-51
2021/12/10 00:46:24;;;;;;;4.63;2.83;;;1.90;99.90;;;;;;5125233;27;20223;-51
2021/12/10 00:49:09;;;;;;;4.70;3.63;;;1.90;99.90;;;;;;5124301;27;20198;-52
2021/12/10 00:51:53;;;;;;;8.70;4.40;;;1.90;99.90;;;;;;5120363;27;20262;-51
2021/12/10 00:54:37;;;;;;;7.13;4.10;;;1.90;99.90;;;;;;5122598;27;20223;-58
2021/12/10 00:57:22;;;;;;;3.40;2.90;;;1.90;99.90;;;;;;5123008;27;20273;-59
2021/12/10 01:00:13;;;;;;;7.77;3.73;;;1.90;99.90;;;;;;5124014;27;20213;-49
2021/12/10 01:02:57;;;;;;;5.10;3.80;;;1.90;99.90;;;;;;5124802;27;20191;-49
2021/12/10 01:05:46;;;;;;;9.63;5.07;;;1.90;99.90;;;;;;5123072;27;20487;-58
2021/12/10 01:08:32;;;;;;;3.67;2.63;;;1.90;99.90;;;;;;5124736;27;20198;-55
2021/12/10 01:11:31;;;;;;;4.50;3.00;;;1.90;99.90;;;;;;5125182;27;20195;-53
2021/12/10 01:14:26;;;;;;;4.10;3.03;;;1.90;99.90;;;;;;5122110;27;20219;-53
2021/12/10 01:29:37;;;;;;;4.10;2.90;;;1.90;99.90;;;;;;5103184;28;20231;-47
2021/12/10 01:32:22;;;;;;;4.70;3.80;;;1.90;99.90;;;;;;5101879;28;20195;-52
2021/12/10 01:35:11;;;;;;;5.50;3.60;;;1.90;99.90;;;;;;5100240;28;20234;-55
2021/12/10 01:37:57;;;;;;;3.53;2.77;;;1.90;99.90;;;;;;5102984;28;20191;-53
2021/12/10 01:40:47;;;;;;;4.57;3.43;;;1.90;99.90;;;;;;5101164;28;20215;-57
2021/12/10 01:43:34;;;;;;;3.47;3.17;;;2.00;99.90;;;;;;5100489;28;20246;-51
2021/12/10 01:46:26;;;;;;;2.30;2.13;;;2.00;99.90;;;;;;5103255;28;20276;-59
2021/12/10 01:49:12;;;;;;;2.87;2.57;;;2.10;99.90;;;;;;5100183;28;20192;-58
2021/12/10 01:51:57;;;;;;;2.90;2.63;;;2.10;99.90;;;;;;5084563;28;20255;-59
2021/12/10 01:54:55;;;;;;;4.07;3.67;;;2.10;99.90;;;;;;5082401;28;20243;-58
2021/12/10 01:57:39;;;;;;;3.90;2.63;;;2.10;99.90;;;;;;5094977;28;20200;-51
2021/12/10 02:00:29;;;;;;;3.30;2.87;;;2.10;99.90;;;;;;5103630;28;20281;-53
2021/12/10 02:03:13;;;;;;;5.63;3.20;;;2.10;99.90;;;;;;5102872;28;20196;-53
2021/12/10 02:05:58;;;;;;;3.97;3.53;;;2.10;99.90;;;;;;5100899;28;20199;-51
2021/12/10 02:08:44;;;;;;;4.00;3.17;;;2.10;99.90;;;;;;5103724;28;20204;-53
2021/12/10 02:11:29;;;;;;;2.77;2.50;;;2.20;99.90;;;;;;5102666;28;20196;-58
2021/12/10 02:14:14;;;;;;;2.53;2.23;;;2.10;99.90;;;;;;5100929;28;20235;-53
2021/12/10 02:16:59;;;;;;;3.63;2.50;;;2.10;99.90;;;;;;5103624;28;20204;-55
2021/12/10 02:19:45;;;;;;;8.67;3.60;;;2.10;99.90;;;;;;5101554;28;20269;-57
2021/12/10 02:22:29;;;;;;;2.30;2.03;;;2.20;99.90;;;;;;5101244;28;20189;-56
2021/12/10 02:25:21;;;;;;;9.07;3.53;;;2.20;99.90;;;;;;5103833;28;20196;-57
2021/12/10 02:28:09;;;;;;;4.17;3.20;;;2.20;99.90;;;;;;5101418;28;20222;-59
2021/12/10 02:30:54;;;;;;;3.17;2.33;;;2.20;99.90;;;;;;5101677;28;20195;-58
2021/12/10 02:33:40;;;;;;;2.87;2.47;;;2.20;99.90;;;;;;5102804;28;20258;-51
2021/12/10 02:36:26;;;;;;;3.47;2.33;;;2.20;99.90;;;;;;5100386;28;20250;-55
2021/12/10 02:39:13;;;;;;;5.57;2.77;;;2.20;99.90;;;;;;5102457;28;20203;-50
2021/12/10 02:41:59;;;;;;;6.10;3.63;;;2.20;99.90;;;;;;5104587;28;20199;-48
2021/12/10 02:44:43;;;;;;;4.00;3.40;;;2.20;99.90;;;;;;5104986;28;20203;-50
2021/12/10 02:47:28;;;;;;;3.30;3.00;;;2.20;99.90;;;;;;5107881;28;20258;-52
2021/12/10 02:50:15;;;;;;;4.90;3.03;;;2.20;99.90;;;;;;5107234;27;20188;-49
2021/12/10 02:53:00;;;;;;;3.83;3.27;;;2.20;99.90;;;;;;5125968;27;20285;-48
2021/12/10 02:55:45;;;;;;;2.40;2.20;;;2.20;99.90;;;;;;5128336;27;20190;-53
2021/12/10 02:58:30;;;;;;;3.20;2.90;;;2.20;99.90;;;;;;5125923;27;20203;-51
2021/12/10 03:01:31;;;;;;;7.20;4.50;;;2.20;99.90;;;;;;5126112;27;20271;-54
2021/12/10 03:04:16;;;;;;;5.03;2.90;;;2.20;99.90;;;;;;5127208;27;20195;-55
2021/12/10 03:07:08;;;;;;;3.27;2.87;;;2.20;99.90;;;;;;5125434;27;20225;-47
2021/12/10 03:09:53;;;;;;;3.03;2.53;;;2.20;99.90;;;;;;5126112;27;20216;-47
2021/12/10 03:12:38;;;;;;;3.20;2.87;;;2.20;99.90;;;;;;5127122;27;20187;-47
2021/12/10 03:15:26;;;;;;;3.33;2.30;;;2.20;99.90;;;;;;5124619;27;20231;-52
2021/12/10 03:18:15;;;;;;;4.23;2.83;;;2.20;99.90;;;;;;5126708;27;20227;-48
2021/12/10 03:21:00;;;;;;;2.60;2.13;;;2.30;99.90;;;;;;5126657;27;20188;-47
2021/12/10 03:23:47;;;;;;;3.60;3.30;;;2.30;99.90;;;;;;5124423;27;20200;-47
2021/12/10 03:26:33;;;;;;;7.00;2.97;;;2.30;99.90;;;;;;5127493;27;20203;-58
2021/12/10 03:29:20;;;;;;;3.37;2.30;;;2.30;99.90;;;;;;5126462;27;20219;-55
2021/12/10 03:32:12;;;;;;;3.33;2.70;;;2.30;99.90;;;;;;5124823;27;20191;-57
2021/12/10 03:35:01;;;;;;;3.40;2.47;;;2.30;99.90;;;;;;5127219;27;20203;-55
2021/12/10 03:37:46;;;;;;;2.37;2.13;;;2.20;99.90;;;;;;5125162;27;20241;-57
2021/12/10 03:40:31;;;;;;;4.23;2.53;;;2.30;99.90;;;;;;5124998;27;20345;-57
2021/12/10 03:43:16;;;;;;;4.10;3.73;;;2.20;99.90;;;;;;5126858;27;20211;-52
2021/12/10 03:46:04;;;;;;;5.37;3.40;;;2.30;99.90;;;;;;5124748;27;20206;-59
2021/12/10 03:48:49;;;;;;;4.57;3.23;;;2.30;99.90;;;;;;5125861;27;20276;-53
2021/12/10 03:51:35;;;;;;;2.87;2.30;;;2.30;99.90;;;;;;5126109;27;20262;-47
2021/12/10 03:54:20;;;;;;;3.03;2.43;;;2.30;99.90;;;;;;5122810;27;20227;-55
2021/12/10 03:57:05;;;;;;;5.07;3.47;;;2.20;99.90;;;;;;5126554;27;20199;-48
2021/12/10 03:59:50;;;;;;;4.97;4.00;;;2.20;99.90;;;;;;5125664;27;20233;-50
2021/12/10 04:02:34;;;;;;;4.47;3.17;;;2.20;99.90;;;;;;5123819;27;20204;-52
2021/12/10 04:05:19;;;;;;;3.13;2.80;;;2.20;99.90;;;;;;5126795;27;20230;-54
2021/12/10 04:08:04;;;;;;;3.40;2.30;;;2.20;99.90;;;;;;5124888;27;20280;-46
2021/12/10 04:10:50;;;;;;;4.33;3.30;;;2.10;99.90;;;;;;5124350;27;20206;-45
2021/12/10 04:13:35;;;;;;;2.87;2.43;;;2.10;99.90;;;;;;5126081;27;20231;-49
2021/12/10 04:16:22;;;;;;;6.17;3.07;;;2.10;99.90;;;;;;5123144;27;20197;-51
2021/12/10 04:19:10;;;;;;;5.83;3.10;;;2.20;99.90;;;;;;5124256;27;20217;-49
2021/12/10 04:21:58;;;;;;;3.67;3.30;;;2.10;99.90;;;;;;5125098;27;20252;-54
2021/12/10 04:24:43;;;;;;;6.23;3.73;;;2.10;99.90;;;;;;5122531;27;20239;-56
2021/12/10 04:27:27;;;;;;;2.63;2.33;;;2.10;99.90;;;;;;5125183;27;20236;-54
2021/12/10 04:30:13;;;;;;;6.43;3.53;;;2.10;99.90;;;;;;5124446;27;20187;-53
2021/12/10 04:32:58;;;;;;;4.37;3.40;;;2.10;99.90;;;;;;5122389;27;20226;-50
2021/12/10 04:35:46;;;;;;;5.13;3.30;;;2.10;99.90;;;;;;5125177;27;20199;-55
2021/12/10 04:38:33;;;;;;;3.47;2.63;;;2.10;99.90;;;;;;5124134;27;20213;-50
2021/12/10 04:41:18;;;;;;;3.37;2.83;;;2.10;99.90;;;;;;5123316;27;20200;-49
2021/12/10 04:44:03;;;;;;;3.20;2.70;;;2.10;99.90;;;;;;5124444;27;20192;-55
2021/12/10 04:46:48;;;;;;;6.17;4.20;;;2.10;99.90;;;;;;5120210;27;20195;-48
2021/12/10 04:49:33;;;;;;;3.50;2.77;;;2.00;99.90;;;;;;5121288;27;20195;-52
2021/12/10 04:52:17;;;;;;;3.37;2.53;;;2.00;99.90;;;;;;5123595;27;20235;-53
2021/12/10 04:55:08;;;;;;;4.13;3.07;;;2.00;99.90;;;;;;5121329;27;20249;-51
2021/12/10 04:57:53;;;;;;;8.30;3.30;;;1.90;99.90;;;;;;5122687;27;20196;-48
2021/12/10 05:00:43;;;;;;;4.57;3.50;;;2.00;99.90;;;;;;5123694;27;20200;-47
2021/12/10 05:03:27;;;;;;;4.50;2.67;;;1.90;99.90;;;;;;5118953;27;20214;-49
2021/12/10 05:06:12;;;;;;;6.30;3.63;;;1.80;99.90;;;;;;5122923;27;20200;-49
2021/12/10 05:08:57;;;;;;;4.43;3.33;;;1.80;99.90;;;;;;5121968;27;20227;-52
2021/12/10 05:11:42;;;;;;;5.20;3.40;;;1.90;99.90;;;;;;5121414;27;20252;-45
2021/12/10 05:14:30;;;;;;;4.37;3.90;;;1.90;99.90;;;;;;5121440;27;20223;-49
2021/12/10 05:17:15;;;;;;;5.47;4.07;;;1.80;99.90;;;;;;5118008;27;20880;-58
2021/12/10 05:20:00;;;;;;;3.27;2.93;;;1.90;99.90;;;;;;5121478;27;20277;-51
2021/12/10 05:22:47;;;;;;;3.83;3.37;;;1.80;99.90;;;;;;5120942;27;20233;-51
2021/12/10 05:25:32;;;;;;;4.53;2.90;;;1.80;99.90;;;;;;5119391;27;20273;-58
2021/12/10 05:28:17;;;;;;;5.73;4.23;;;1.80;99.90;;;;;;5121894;27;20252;-45
2021/12/10 05:31:01;;;;;;;4.33;2.70;;;1.80;99.90;;;;;;5122713;27;20206;-51
2021/12/10 05:33:46;;;;;;;7.57;2.80;;;1.80;99.90;;;;;;5117952;27;20216;-48
2021/12/10 05:36:31;;;;;;;5.57;3.57;;;1.70;99.90;;;;;;5121483;27;20244;-46
2021/12/10 05:39:21;;;;;;;4.13;3.53;;;1.70;99.90;;;;;;5121053;27;20196;-58
2021/12/10 05:42:07;;;;;;;4.23;3.83;;;1.70;99.90;;;;;;5112605;27;20250;-49
2021/12/10 05:44:51;;;;;;;3.43;2.70;;;1.70;99.90;;;;;;5122885;27;20219;-55
2021/12/10 05:47:36;;;;;;;4.60;4.10;;;1.70;99.90;;;;;;5114768;27;20195;-58
2021/12/10 05:50:24;;;;;;;4.10;3.13;;;1.60;99.90;;;;;;5118302;27;20245;-51
2021/12/10 05:53:08;;;;;;;5.27;3.77;;;1.50;99.90;;;;;;5121047;27;20214;-52
2021/12/10 05:55:53;;;;;;;4.33;3.30;;;1.40;99.90;;;;;;5123088;27;20211;-51
2021/12/10 05:58:37;;;;;;;5.43;3.60;;;1.30;99.90;;;;;;5117981;27;20280;-47
2021/12/10 06:01:22;;;;;;;8.00;5.13;;;1.20;99.90;;;;;;5129916;27;20202;-53
2021/12/10 06:04:08;;;;;;;3.23;2.70;;;1.10;99.90;;;;;;5124440;27;20358;-49
2021/12/10 06:06:53;;;;;;;4.57;3.40;;;1.00;99.90;;;;;;5126484;27;20324;-49
2021/12/10 06:09:37;;;;;;;6.43;3.67;;;1.00;99.90;;;;;;5118459;27;20210;-50
2021/12/10 06:12:22;;;;;;;5.97;2.40;;;0.90;99.90;;;;;;5114132;27;20215;-47
2021/12/10 06:15:08;;;;;;;4.97;2.27;;;0.90;99.90;;;;;;5120809;27;20260;-51
2021/12/10 06:17:53;;;;;;;4.53;3.73;;;0.80;99.90;;;;;;5117964;27;20218;-54
2021/12/10 06:20:47;;;;;;;6.97;2.17;;;0.70;99.90;;;;;;5117332;27;20195;-50
2021/12/10 06:23:32;;;;;;;3.80;2.50;;;0.70;99.90;;;;;;5116694;27;20200;-51
2021/12/10 06:26:17;;;;;;;2.37;2.17;;;0.60;99.90;;;;;;5124148;27;20194;-47
2021/12/10 06:29:04;;;;;;;4.53;2.70;;;0.60;99.90;;;;;;5112942;27;20268;-54
2021/12/10 06:31:50;;;;;;;4.67;2.90;;;0.50;99.90;;;;;;5123528;27;20192;-52
2021/12/10 06:34:35;;;;;;;4.23;2.73;;;0.50;99.90;;;;;;5114813;27;20255;-53
2021/12/10 06:37:20;;;;;;;4.87;2.63;;;0.50;99.90;;;;;;5116686;27;20292;-49
2021/12/10 06:40:08;;;;;;;4.43;2.20;;;0.50;99.90;;;;;;5118861;27;20357;-57
2021/12/10 06:42:52;;;;;;;3.83;3.50;;;0.50;99.90;;;;;;5110242;27;20234;-52
2021/12/10 06:45:38;;;;;;;4.87;3.57;;;0.40;99.90;;;;;;5154669;27;20196;-47
2021/12/10 06:48:24;;;;;;;4.00;2.87;;;0.40;99.90;;;;;;5124780;27;20215;-48
2021/12/10 06:51:19;;;;;;;4.23;2.77;;;0.40;99.90;;;;;;5116386;27;20319;-52
2021/12/10 06:54:03;;;;;;;3.40;2.57;;;0.40;99.90;;;;;;5120179;27;20227;-52
2021/12/10 06:56:50;;;;;;;8.13;2.67;;;0.40;99.90;;;;;;5120085;27;20194;-49
2021/12/10 06:59:34;;;;;;;3.67;3.23;;;0.50;99.90;;;;;;5128704;27;20302;-47
2021/12/10 07:02:19;;;;;;;3.17;2.83;;;0.60;99.90;;;;;;5140083;27;20293;-50
2021/12/10 07:05:05;;;;;;;5.23;3.10;;;0.70;99.90;;;;;;5115927;27;20195;-47
2021/12/10 07:07:49;;;;;;;2.23;2.13;;;0.80;99.90;;;;;;5120750;27;20247;-45
2021/12/10 07:10:34;;;;;;;5.00;3.80;;;0.80;99.90;;;;;;5122634;27;20720;-49
2021/12/10 07:13:19;;;;;;;4.03;2.70;;;0.80;99.90;;;;;;5120675;27;20219;-48
2021/12/10 07:16:06;;;;;;;7.53;6.00;;;0.90;99.90;;;;;;5120668;27;20183;-49
2021/12/10 07:18:52;;;;;;;9.70;4.60;;;0.90;99.90;;;;;;5123202;27;20280;-47
2021/12/10 07:21:37;;;;;;;3.93;3.37;;;1.00;99.90;;;;;;5121615;27;20195;-55
2021/12/10 07:24:22;;;;;;;7.00;3.67;;;1.00;99.90;;;;;;5119347;27;20195;-52
2021/12/10 07:27:11;;;;;;;8.07;4.43;;;1.10;99.90;;;;;;5120337;27;20199;-45
2021/12/10 07:29:59;;;;;;;7.10;5.00;;;1.10;99.90;;;;;;5120849;27;20214;-49
2021/12/10 07:32:43;;;;;;;7.63;3.77;;;1.10;99.90;;;;;;5115418;27;20192;-48
2021/12/10 07:35:28;;;;;;;4.70;4.07;;;1.10;99.90;;;;;;5114187;27;20198;-50
2021/12/10 07:38:12;;;;;;;9.07;4.93;;;1.10;99.90;;;;;;5128106;27;20261;-53
2021/12/10 07:40:57;;;;;;;7.77;3.63;;;1.10;99.90;;;;;;5121632;27;20248;-49
2021/12/10 07:43:42;;;;;;;6.23;4.17;;;1.00;99.90;;;;;;5121823;27;20198;-50
2021/12/10 07:46:28;;;;;;;6.00;3.67;;;1.10;99.90;;;;;;5116521;27;20199;-47
2021/12/10 07:49:17;;;;;;;9.17;5.57;;;1.10;99.90;;;;;;5138867;27;20198;-49
2021/12/10 07:52:01;;;;;;;8.20;3.37;;;1.10;99.90;;;;;;5112244;27;20231;-47
2021/12/10 07:54:48;;;;;;;6.27;4.90;;;1.10;99.90;;;;;;5122995;27;20215;-46
2021/12/10 07:57:32;;;;;;;7.37;4.53;;;1.10;99.90;;;;;;5123913;27;20227;-54
2021/12/10 08:00:18;;;;;;;4.57;3.47;;;1.20;99.90;;;;;;5116744;27;20270;-48
2021/12/10 08:03:03;;;;;;;6.03;3.60;;;1.20;99.90;;;;;;5120853;27;20305;-51
2021/12/10 08:05:50;;;;;;;10.57;4.33;;;1.20;99.90;;;;;;5110473;27;20194;-52
2021/12/10 08:08:34;;;;;;;6.17;4.33;;;1.20;99.90;;;;;;5132448;27;20279;-51
2021/12/10 08:11:19;;;;;;;6.23;5.10;;;1.40;99.90;;;;;;5128227;27;20240;-53
2021/12/10 08:14:04;;;;;;;7.70;3.37;;;1.40;99.90;;;;;;5120387;27;20215;-50
2021/12/10 08:16:49;;;;;;;10.20;4.57;;;1.60;99.90;;;;;;5133107;27;20213;-54
2021/12/10 08:19:33;;;;;;;5.27;3.03;;;1.60;99.90;;;;;;5129252;27;20249;-56
2021/12/10 08:22:18;;;;;;;6.07;3.50;;;1.60;99.90;;;;;;5104353;27;20234;-56
2021/12/10 08:25:03;;;;;;;3.77;3.47;;;1.60;99.90;;;;;;5135747;27;20199;-48
2021/12/10 08:27:49;;;;;;;6.60;4.33;;;1.70;99.90;;;;;;5121474;27;20217;-56
2021/12/10 08:30:35;;;;;;;6.03;3.23;;;1.70;99.90;;;;;;5108333;27;20203;-48
2021/12/10 08:33:20;;;;;;;6.70;4.17;;;1.70;99.90;;;;;;5120902;27;20361;-50
2021/12/10 08:36:08;;;;;;;4.93;3.57;;;1.90;99.90;;;;;;5128282;27;20203;-46
2021/12/10 08:38:53;;;;;;;4.13;3.67;;;1.90;99.90;;;;;;5118546;27;20241;-46
2021/12/10 08:41:39;;;;;;;6.90;4.47;;;2.00;99.90;;;;;;5117127;27;20221;-48
2021/12/10 08:44:23;;;;;;;3.43;2.67;;;1.90;99.90;;;;;;5114413;27;20238;-51
2021/12/10 08:47:09;;;;;;;3.73;2.90;;;2.00;99.90;;;;;;5132044;27;20247;-57
2021/12/10 08:49:54;;;;;;;3.90;3.37;;;2.20;99.90;;;;;;5110394;27;20219;-48
2021/12/10 08:52:38;;;;;;;4.23;3.07;;;2.00;99.90;;;;;;5124194;27;20317;-53
2021/12/10 08:55:25;;;;;;;3.80;3.37;;;1.90;99.90;;;;;;5133579;27;20199;-58
2021/12/10 08:58:11;;;;;;;3.67;3.13;;;1.80;99.90;;;;;;5118860;27;20199;-59
2021/12/10 09:01:01;;;;;;;4.73;2.13;;;1.70;99.90;;;;;;5123784;27;20200;-57
2021/12/10 09:03:48;;;;;;;3.30;3.00;;;1.70;99.90;;;;;;5110003;27;20199;-50
2021/12/10 09:06:37;;;;;;;3.80;3.43;;;1.70;99.90;;;;;;5122732;27;20188;-54
2021/12/10 09:09:22;;;;;;;2.40;2.20;;;1.70;99.90;;;;;;5119504;27;20214;-47
2021/12/10 09:12:14;;;;;;;5.03;3.17;;;1.80;99.90;;;;;;5119503;27;21037;-47
2021/12/10 09:15:00;;;;;;;5.67;3.30;;;2.00;99.90;;;;;;5115674;27;20246;-52
2021/12/10 09:17:47;;;;;;;5.47;4.10;;;2.10;99.90;;;;;;5149908;27;20252;-49
2021/12/10 09:20:36;;;;;;;3.97;2.83;;;1.90;99.90;;;;;;5122343;27;20207;-54
2021/12/10 09:23:24;;;;;;;4.87;3.47;;;1.90;99.90;;;;;;5108668;27;20188;-46
2021/12/10 09:26:14;;;;;;;3.60;2.97;;;1.80;99.90;;;;;;5121981;27;20246;-45
2021/12/10 09:29:00;;;;;;;5.20;2.90;;;1.70;99.90;;;;;;5116675;27;20200;-47
2021/12/10 09:31:45;;;;;;;4.30;2.90;;;1.60;99.90;;;;;;5108795;27;20214;-46
2021/12/10 09:34:33;;;;;;;3.60;2.80;;;1.60;99.90;;;;;;5120253;27;20281;-57
2021/12/10 09:37:21;;;;;;;2.37;2.17;;;1.80;99.90;;;;;;5119516;27;20241;-56
2021/12/10 09:40:13;;;;;;;3.53;3.23;;;1.80;99.90;;;;;;5122547;27;20234;-56
2021/12/10 09:42:58;;;;;;;3.57;3.27;;;1.80;99.90;;;;;;5116904;27;20253;-52
2021/12/10 09:45:44;;;;;;;3.53;2.23;;;1.80;99.90;;;;;;5119684;27;20194;-47
2021/12/10 09:48:28;;;;;;;2.60;2.40;;;1.80;99.90;;;;;;5114075;27;20187;-45
2021/12/10 09:51:23;;;;;;;3.80;2.67;;;2.10;99.90;;;;;;5114112;27;20214;-54
2021/12/10 09:54:13;;;;;;;4.07;3.77;;;2.00;99.90;;;;;;5121067;27;20234;-50
2021/12/10 09:57:06;;;;;;;6.07;3.40;;;2.10;99.90;;;;;;5120521;27;20257;-49
2021/12/10 09:59:53;;;;;;;3.00;2.80;;;2.30;99.90;;;;;;5127273;27;20284;-46
2021/12/10 10:02:39;;;;;;;1.60;1.50;;;2.20;99.90;;;;;;5112800;27;20187;-51
2021/12/10 10:05:27;;;;;;;2.37;2.17;;;2.10;99.90;;;;;;5114615;27;20188;-55
2021/12/10 10:08:21;;;;;;;3.27;2.57;;;2.00;99.90;;;;;;5121749;27;20204;-50
2021/12/10 10:11:11;;;;;;;2.77;2.50;;;1.90;99.90;;;;;;5126247;27;20283;-50
2021/12/10 10:13:56;;;;;;;17.97;3.13;;;1.90;99.90;;;;;;5119871;27;20268;-46
2021/12/10 10:16:44;;;;;;;3.93;3.00;;;2.00;99.90;;;;;;5123306;27;20239;-46
2021/12/10 10:19:29;;;;;;;4.03;3.63;;;2.00;99.90;;;;;;5119098;27;20191;-45
2021/12/10 10:22:17;;;;;;;2.80;2.37;;;1.90;99.90;;;;;;5106841;27;20195;-48
2021/12/10 10:25:07;;;;;;;8.90;2.57;;;1.90;99.90;;;;;;5127189;27;20231;-55
2021/12/10 10:27:51;;;;;;;3.70;2.63;;;1.90;99.90;;;;;;5121535;27;20211;-48
2021/12/10 10:30:42;;;;;;;2.80;2.57;;;1.90;99.90;;;;;;5125424;27;20222;-46
2021/12/10 10:33:31;;;;;;;3.43;2.30;;;1.80;99.90;;;;;;5109156;27;20231;-50
2021/12/10 10:36:20;;;;;;;2.20;2.00;;;1.80;99.90;;;;;;5122681;27;20195;-46
2021/12/10 10:39:14;;;;;;;1.70;1.53;;;1.90;99.90;;;;;;5120348;27;20196;-48
2021/12/10 10:42:02;;;;;;;3.80;3.03;;;1.80;99.90;;;;;;5114710;27;20312;-45
2021/12/10 10:44:48;;;;;;;3.83;2.57;;;1.80;99.90;;;;;;5122548;27;20194;-47
2021/12/10 10:47:32;;;;;;;6.97;2.53;;;1.90;99.90;;;;;;5126310;27;20195;-45
2021/12/10 10:50:22;;;;;;;2.47;2.27;;;1.90;99.90;;;;;;5150454;27;20198;-48
2021/12/10 10:53:12;;;;;;;2.20;2.07;;;2.00;99.90;;;;;;5110741;27;20246;-48
2021/12/10 10:56:02;;;;;;;4.20;2.83;;;2.00;99.90;;;;;;5125313;27;20220;-50
2021/12/10 10:58:55;;;;;;;2.20;2.00;;;2.00;99.90;;;;;;5118496;27;20183;-52
2021/12/10 11:01:53;;;;;;;4.20;1.80;;;2.10;99.90;;;;;;5109514;27;20195;-50
2021/12/10 11:04:52;;;;;;;2.13;1.57;;;2.10;99.90;;;;;;5112927;27;20262;-49
2021/12/10 11:07:45;;;;;;;2.13;1.57;;;2.20;99.90;;;;;;5123424;27;20237;-58
2021/12/10 11:10:40;;;;;;;1.33;1.33;;;2.20;99.90;;;;;;5126139;27;20210;-53
2021/12/10 11:13:28;;;;;;;2.27;1.90;;;2.20;99.90;;;;;;5117569;27;20327;-48
2021/12/10 11:16:20;;;;;;;1.23;1.13;;;2.30;99.90;;;;;;5129295;27;20188;-54
2021/12/10 11:19:09;;;;;;;2.47;1.43;;;2.30;99.90;;;;;;5120054;27;20323;-45
2021/12/10 11:21:58;;;;;;;1.40;1.37;;;2.30;99.90;;;;;;5123545;27;20236;-50
2021/12/10 11:24:51;;;;;;;1.57;1.47;;;2.30;99.90;;;;;;5122884;27;20230;-53
2021/12/10 11:27:39;;;;;;;6.10;2.20;;;2.30;99.90;;;;;;5125769;27;20245;-48
2021/12/10 11:30:26;;;;;;;1.10;1.10;;;2.40;99.90;;;;;;5126142;27;20284;-57
2021/12/10 11:33:16;;;;;;;1.60;1.50;;;2.30;99.90;;;;;;5123650;27;20231;-46
2021/12/10 11:36:07;;;;;;;2.20;2.07;;;2.20;99.90;;;;;;5121137;27;20187;-48
2021/12/10 11:38:57;;;;;;;1.53;1.43;;;2.30;99.90;;;;;;5127687;27;20260;-47
2021/12/10 11:41:41;;;;;;;4.20;3.07;;;2.20;99.90;;;;;;5130251;27;20207;-46
2021/12/10 11:44:54;;;;;;;1.57;1.47;;;2.20;99.90;;;;;;5119065;27;20215;-47
2021/12/10 11:47:48;;;;;;;1.83;1.23;;;2.10;99.90;;;;;;5130791;27;20203;-52
2021/12/10 11:50:35;;;;;;;2.73;1.93;;;2.20;99.90;;;;;;5117901;27;20338;-55
2021/12/10 11:53:19;;;;;;;1.60;1.50;;;2.10;99.90;;;;;;5110505;27;20247;-48
2021/12/10 11:56:43;;;;;;;1.10;1.07;;;2.10;99.90;;;;;;5134959;27;20194;-45
2021/12/10 11:59:39;;;;;;;1.57;1.33;;;2.10;99.90;;;;;;5128281;27;20213;-54
2021/12/10 12:02:28;;;;;;;1.70;1.60;;;2.00;99.90;;;;;;5121867;27;20195;-53
2021/12/10 12:05:17;;;;;;;2.57;1.57;;;2.00;99.90;;;;;;5123406;27;20192;-51
2021/12/10 12:08:08;;;;;;;1.30;1.20;;;2.10;99.90;;;;;;5121042;27;20238;-48
2021/12/10 12:10:59;;;;;;;2.17;2.00;;;2.10;99.90;;;;;;5123961;27;20265;-51
2021/12/10 12:13:53;;;;;;;2.47;2.03;;;2.10;99.90;;;;;;5119804;27;20231;-52
2021/12/10 12:16:38;;;;;;;1.70;1.60;;;2.20;99.90;;;;;;5122881;27;20195;-50
2021/12/10 12:19:31;;;;;;;1.50;1.40;;;2.30;99.90;;;;;;5123995;27;20214;-47
2021/12/10 12:25:29;;;;;;;2.20;1.97;;;2.40;99.90;;;;;;5121728;27;20203;-52
2021/12/10 12:28:16;;;;;;;1.67;1.57;;;2.40;99.90;;;;;;5134989;27;20195;-47
2021/12/10 12:31:09;;;;;;;5.70;1.90;;;2.40;99.90;;;;;;5130983;27;20249;-49
2021/12/10 12:34:10;;;;;;;3.73;1.93;;;2.50;99.90;;;;;;5120327;27;20238;-53
2021/12/10 12:37:00;;;;;;;1.37;1.10;;;2.40;99.90;;;;;;5112068;27;20182;-54
2021/12/10 12:39:53;;;;;;;2.63;1.67;;;2.40;99.90;;;;;;5132470;27;20252;-47
2021/12/10 12:43:04;;;;;;;1.77;1.67;;;2.40;99.90;;;;;;5121463;27;20195;-55
2021/12/10 12:45:48;;;;;;;2.03;1.20;;;2.40;99.90;;;;;;5143442;27;20211;-50
2021/12/10 12:48:33;;;;;;;5.03;2.87;;;2.40;99.90;;;;;;5122214;27;20206;-51
2021/12/10 12:51:20;;;;;;;3.43;1.87;;;2.50;99.90;;;;;;5108745;27;20234;-57
2021/12/10 12:54:11;;;;;;;1.00;1.00;;;2.60;99.90;;;;;;5127425;27;20237;-49
2021/12/10 12:56:57;;;;;;;5.33;1.53;;;2.60;99.90;;;;;;5133786;27;20199;-48
2021/12/10 12:59:41;;;;;;;2.93;1.60;;;2.60;99.90;;;;;;5125343;27;20188;-45
2021/12/10 13:02:28;;;;;;;4.07;2.10;;;2.60;99.90;;;;;;5113171;27;20195;-49
2021/12/10 13:05:12;;;;;;;2.20;1.57;;;2.50;99.90;;;;;;5126777;27;20202;-57
2021/12/10 13:08:07;;;;;;;2.17;2.00;;;2.50;99.90;;;;;;5121487;27;20245;-47
2021/12/10 13:11:13;;;;;;;1.80;1.70;;;2.50;99.90;;;;;;5123439;27;20195;-49
2021/12/10 13:14:18;;;;;;;1.40;1.03;;;2.50;99.90;;;;;;5139106;27;20214;-48
2021/12/10 13:17:12;;;;;;;1.17;1.07;;;2.50;99.90;;;;;;5120770;27;20191;-52
2021/12/10 13:19:59;;;;;;;1.17;1.07;;;2.40;99.90;;;;;;5123730;27;20210;-47
2021/12/10 13:22:43;;;;;;;1.10;1.10;;;2.40;99.90;;;;;;5117552;27;20208;-46
2021/12/10 13:25:30;;;;;;;4.13;1.83;;;2.40;99.90;;;;;;5119161;27;20317;-45
2021/12/10 13:28:15;;;;;;;1.20;1.20;;;2.30;99.90;;;;;;5119322;27;20198;-47
2021/12/10 13:31:05;;;;;;;3.43;1.90;;;2.30;99.90;;;;;;5112135;27;20313;-48
2021/12/10 13:33:50;;;;;;;1.73;1.30;;;2.30;99.90;;;;;;5115643;27;20242;-50
2021/12/10 13:36:36;;;;;;;2.10;2.00;;;2.30;99.90;;;;;;5125043;27;20250;-53
2021/12/10 13:39:21;;;;;;;2.40;1.87;;;2.30;99.90;;;;;;5114035;27;20292;-52
2021/12/10 13:42:05;;;;;;;1.50;1.43;;;2.40;99.90;;;;;;5123722;27;20199;-50
2021/12/10 13:44:54;;;;;;;3.83;1.90;;;2.30;99.90;;;;;;5122938;27;20286;-53
2021/12/10 13:47:50;;;;;;;1.73;1.60;;;2.30;99.90;;;;;;5121036;27;20257;-52
2021/12/10 13:50:44;;;;;;;1.60;1.10;;;2.30;99.90;;;;;;5119928;27;20230;-53
2021/12/10 13:53:28;;;;;;;1.33;1.33;;;2.40;99.90;;;;;;5113242;27;20286;-49
2021/12/10 13:56:15;;;;;;;2.80;1.87;;;2.30;99.90;;;;;;5119414;27;20216;-51
2021/12/10 13:59:06;;;;;;;1.67;1.40;;;2.20;99.90;;;;;;5152576;27;20207;-51
2021/12/10 14:01:55;;;;;;;1.70;1.60;;;2.20;99.90;;;;;;5125580;27;20196;-50
2021/12/10 14:04:46;;;;;;;1.13;1.00;;;2.20;99.90;;;;;;5121378;27;20179;-49
2021/12/10 14:07:31;;;;;;;2.43;1.40;;;2.20;99.90;;;;;;5115400;27;20261;-59
2021/12/10 14:10:31;;;;;;;4.83;2.17;;;2.10;99.90;;;;;;5129809;27;20241;-50
2021/12/10 14:13:31;;;;;;;1.70;1.60;;;2.10;99.90;;;;;;5117598;27;20216;-57
2021/12/10 14:16:15;;;;;;;1.77;1.60;;;2.10;99.90;;;;;;5118822;27;20269;-52
2021/12/10 14:19:00;;;;;;;1.23;1.10;;;2.10;99.90;;;;;;5122681;27;20219;-48
2021/12/10 14:21:45;;;;;;;1.83;1.63;;;2.10;99.90;;;;;;5118671;27;20235;-57
2021/12/10 14:24:43;;;;;;;1.70;1.33;;;2.00;99.90;;;;;;5114498;27;20200;-54
2021/12/10 14:27:28;;;;;;;1.80;1.70;;;2.00;99.90;;;;;;5131575;27;20260;-53
2021/12/10 14:30:30;;;;;;;1.77;1.67;;;1.90;99.90;;;;;;5124614;27;20192;-51
2021/12/10 14:33:28;;;;;;;2.93;1.53;;;1.90;99.90;;;;;;5113201;27;20251;-50
2021/12/10 14:36:17;;;;;;;2.57;1.33;;;1.80;99.90;;;;;;5135902;27;20191;-57
2021/12/10 14:39:01;;;;;;;1.00;0.97;;;1.70;99.90;;;;;;5117125;27;20257;-52
2021/12/10 14:41:49;;;;;;;2.90;1.20;;;1.70;99.90;;;;;;5114401;27;20208;-58
2021/12/10 14:44:35;;;;;;;1.13;1.03;;;1.70;99.90;;;;;;5111749;27;20196;-57
2021/12/10 14:47:23;;;;;;;3.03;2.23;;;1.60;99.90;;;;;;5113780;27;20249;-46
2021/12/10 14:50:09;;;;;;;1.90;1.33;;;1.50;99.90;;;;;;5115591;27;20194;-52
2021/12/10 14:52:54;;;;;;;1.93;1.83;;;1.60;99.90;;;;;;5120948;27;20333;-48
2021/12/10 14:55:40;;;;;;;1.47;1.30;;;1.60;99.90;;;;;;5132590;27;20220;-51
2021/12/10 14:58:25;;;;;;;1.67;1.57;;;1.50;99.90;;;;;;5123188;27;20197;-49
2021/12/10 15:01:16;;;;;;;3.20;1.90;;;1.50;99.90;;;;;;5119845;27;20200;-52